Time;durP1;ratioP1;P1;durP2;ratioP2;P2;SDS_P1;SDS_P2;PMS_P1;PMS_P2;Temp;Humidity;BMP_temperature;BMP_pressure;BME280_temperature;BME280_humidity;BME280_pressure;Samples;Min_cycle;Max_cycle;Signal;HPM_P1;HPM_P2
2023/09/14 00:02:20;;;;;;;5.80;5.70;;;12.30;99.90;;;;;;5087373;28;20867;-67
2023/09/14 00:04:48;;;;;;;5.67;5.57;;;12.20;99.90;;;;;;5084792;28;20903;-69
2023/09/14 00:07:16;;;;;;;5.93;5.83;;;12.20;99.90;;;;;;5088962;28;20814;-67
2023/09/14 00:09:42;;;;;;;6.03;5.93;;;12.20;99.90;;;;;;5073856;28;20838;-68
2023/09/14 00:12:11;;;;;;;5.93;5.83;;;12.20;99.90;;;;;;5075901;28;20462;-67
2023/09/14 00:14:38;;;;;;;5.47;5.37;;;12.20;99.90;;;;;;5068318;28;20474;-68
2023/09/14 00:17:06;;;;;;;5.97;5.87;;;12.20;99.90;;;;;;5088907;28;20446;-68
2023/09/14 00:19:34;;;;;;;5.43;5.33;;;12.20;99.90;;;;;;5088599;28;20876;-68
2023/09/14 00:22:02;;;;;;;5.73;5.63;;;12.10;99.90;;;;;;5075374;28;20947;-68
2023/09/14 00:24:28;;;;;;;6.50;6.40;;;12.00;99.90;;;;;;5076072;28;20586;-67
2023/09/14 00:26:55;;;;;;;5.90;5.80;;;12.00;99.90;;;;;;5082363;28;20481;-68
2023/09/14 00:29:22;;;;;;;6.63;6.53;;;11.90;99.90;;;;;;5076823;28;20521;-68
2023/09/14 00:31:49;;;;;;;6.03;5.93;;;11.90;99.90;;;;;;5086164;28;20536;-67
2023/09/14 00:34:16;;;;;;;6.47;6.37;;;11.90;99.90;;;;;;5088816;28;20462;-68
2023/09/14 00:36:44;;;;;;;6.23;6.13;;;11.90;99.90;;;;;;5083316;28;20872;-67
2023/09/14 00:39:11;;;;;;;6.03;5.93;;;11.80;99.90;;;;;;5078364;28;20465;-67
2023/09/14 00:41:38;;;;;;;6.60;6.50;;;11.70;99.90;;;;;;5076677;28;20454;-67
2023/09/14 00:44:06;;;;;;;5.80;5.70;;;11.70;99.90;;;;;;5080142;28;20493;-67
2023/09/14 00:46:34;;;;;;;5.57;5.47;;;11.90;99.90;;;;;;5083149;28;20881;-67
2023/09/14 00:49:02;;;;;;;6.30;6.20;;;11.80;99.90;;;;;;5079448;28;20459;-67
2023/09/14 00:51:31;;;;;;;6.47;6.37;;;11.80;99.90;;;;;;5079257;28;20470;-67
2023/09/14 00:54:03;;;;;;;5.90;5.80;;;11.70;99.90;;;;;;5081814;28;20474;-67
2023/09/14 00:56:31;;;;;;;6.07;5.97;;;11.70;99.90;;;;;;5080411;28;20548;-67
2023/09/14 00:58:57;;;;;;;6.37;6.27;;;11.70;99.90;;;;;;5083121;28;20919;-68
2023/09/14 01:01:24;;;;;;;6.07;5.97;;;11.60;99.90;;;;;;5085817;28;20461;-67
2023/09/14 01:03:52;;;;;;;6.20;6.10;;;11.60;99.90;;;;;;5075774;28;20482;-67
2023/09/14 01:06:19;;;;;;;6.30;6.20;;;11.60;99.90;;;;;;5076651;28;20465;-68
2023/09/14 01:08:47;;;;;;;6.60;6.50;;;11.60;99.90;;;;;;5086468;28;20461;-67
2023/09/14 01:11:16;;;;;;;5.83;5.73;;;11.60;99.90;;;;;;5074852;28;20469;-68
2023/09/14 01:13:52;;;;;;;5.67;5.57;;;11.60;99.90;;;;;;5071857;28;20481;-67
2023/09/14 01:16:26;;;;;;;5.73;5.63;;;11.60;99.90;;;;;;5090740;28;20449;-68
2023/09/14 01:18:59;;;;;;;5.80;5.70;;;11.60;99.90;;;;;;5077456;28;20466;-68
2023/09/14 01:21:39;;;;;;;5.73;5.63;;;11.60;99.90;;;;;;5073221;28;20902;-67
2023/09/14 01:24:18;;;;;;;5.70;5.60;;;11.60;99.90;;;;;;5068071;28;21000;-67
2023/09/14 01:26:47;;;;;;;6.23;6.13;;;11.60;99.90;;;;;;5085303;28;20512;-67
2023/09/14 01:29:15;;;;;;;5.80;5.70;;;11.60;99.90;;;;;;5081718;28;20853;-69
2023/09/14 01:31:42;;;;;;;5.70;5.60;;;11.60;99.90;;;;;;5088382;28;20458;-68
2023/09/14 01:34:09;;;;;;;5.97;5.87;;;11.60;99.90;;;;;;5083160;28;20968;-68
2023/09/14 01:36:43;;;;;;;5.57;5.47;;;11.60;99.90;;;;;;5078157;28;20866;-68
2023/09/14 01:39:12;;;;;;;5.50;5.40;;;11.60;99.90;;;;;;5070981;28;20609;-67
2023/09/14 01:41:40;;;;;;;6.07;5.97;;;11.50;99.90;;;;;;5087530;28;20458;-68
2023/09/14 01:44:08;;;;;;;6.00;5.90;;;11.50;99.90;;;;;;5082324;28;20486;-67
2023/09/14 01:46:37;;;;;;;6.10;6.00;;;11.50;99.90;;;;;;5091102;28;21071;-67
2023/09/14 01:49:04;;;;;;;6.83;6.73;;;11.50;99.90;;;;;;5079958;28;20468;-67
2023/09/14 01:51:31;;;;;;;6.63;6.53;;;11.50;99.90;;;;;;5067837;28;20451;-67
2023/09/14 01:53:58;;;;;;;7.00;6.90;;;11.50;99.90;;;;;;5087584;28;21001;-68
2023/09/14 01:56:25;;;;;;;6.73;6.63;;;11.50;99.90;;;;;;5082678;28;20458;-68
2023/09/14 01:58:52;;;;;;;6.77;6.67;;;11.40;99.90;;;;;;5076467;28;20488;-68
2023/09/14 02:01:21;;;;;;;6.67;6.57;;;11.40;99.90;;;;;;5081339;28;20462;-67
2023/09/14 02:03:48;;;;;;;6.80;6.70;;;11.40;99.90;;;;;;5087710;28;20494;-67
2023/09/14 02:06:16;;;;;;;6.67;6.57;;;11.40;99.90;;;;;;5082899;28;20458;-68
2023/09/14 02:08:44;;;;;;;6.93;6.83;;;11.40;99.90;;;;;;5087819;28;20863;-68
2023/09/14 02:11:13;;;;;;;6.80;6.70;;;11.40;99.90;;;;;;5074173;28;20454;-68
2023/09/14 02:13:41;;;;;;;6.93;6.83;;;11.30;99.90;;;;;;5075187;28;20473;-67
2023/09/14 02:16:08;;;;;;;7.20;7.10;;;11.40;99.90;;;;;;5090179;28;20450;-67
2023/09/14 02:18:37;;;;;;;7.00;6.90;;;11.30;99.90;;;;;;5088819;28;20465;-66
2023/09/14 02:21:04;;;;;;;6.13;6.03;;;11.30;99.90;;;;;;5086493;28;20515;-68
2023/09/14 02:23:32;;;;;;;6.27;6.17;;;11.30;99.90;;;;;;5081492;28;20881;-67
2023/09/14 02:25:59;;;;;;;6.97;6.87;;;11.30;99.90;;;;;;5077046;28;21016;-68
2023/09/14 02:28:27;;;;;;;6.90;6.80;;;11.20;99.90;;;;;;5081742;28;20488;-67
2023/09/14 02:30:54;;;;;;;6.70;6.60;;;11.20;99.90;;;;;;5091211;28;20481;-68
2023/09/14 02:33:22;;;;;;;6.70;6.60;;;11.20;99.90;;;;;;5091679;28;20462;-66
2023/09/14 02:35:51;;;;;;;6.47;6.37;;;11.20;99.90;;;;;;5079490;28;20864;-68
2023/09/14 02:38:18;;;;;;;6.57;6.47;;;11.20;99.90;;;;;;5079966;28;20552;-68
2023/09/14 02:40:47;;;;;;;6.60;6.50;;;11.20;99.90;;;;;;5090353;28;20461;-67
2023/09/14 02:43:13;;;;;;;7.43;7.33;;;11.10;99.90;;;;;;5078404;28;20572;-67
2023/09/14 02:45:40;;;;;;;6.97;6.87;;;11.10;99.90;;;;;;5088270;28;20457;-67
2023/09/14 02:48:08;;;;;;;6.87;6.77;;;11.10;99.90;;;;;;5097784;28;20462;-68
2023/09/14 02:50:34;;;;;;;6.90;6.80;;;11.10;99.90;;;;;;5081027;28;20943;-67
2023/09/14 02:53:04;;;;;;;6.10;6.00;;;11.10;99.90;;;;;;5086727;28;20469;-67
2023/09/14 02:55:31;;;;;;;6.33;6.23;;;11.10;99.90;;;;;;5085443;28;20462;-68
2023/09/14 02:57:59;;;;;;;6.70;6.60;;;11.20;99.90;;;;;;5085736;28;20446;-67
2023/09/14 03:00:26;;;;;;;6.30;6.20;;;11.20;99.90;;;;;;5081553;28;20823;-68
2023/09/14 03:02:52;;;;;;;6.20;6.10;;;11.10;99.90;;;;;;5089542;28;20493;-68
2023/09/14 03:05:19;;;;;;;6.40;6.30;;;11.10;99.90;;;;;;5089957;28;20580;-68
2023/09/14 03:07:48;;;;;;;5.70;5.60;;;11.30;99.90;;;;;;5084931;28;20833;-67
2023/09/14 03:10:18;;;;;;;5.57;5.47;;;11.40;99.90;;;;;;5090205;28;20481;-68
2023/09/14 03:12:45;;;;;;;5.37;5.27;;;11.50;99.90;;;;;;5081319;28;20741;-67
2023/09/14 03:15:11;;;;;;;4.60;4.60;;;11.60;99.90;;;;;;5071014;28;20834;-67
2023/09/14 03:17:39;;;;;;;4.80;4.80;;;11.70;99.90;;;;;;5081278;28;20458;-67
2023/09/14 03:20:07;;;;;;;4.47;4.47;;;11.70;99.90;;;;;;5075890;28;20559;-68
2023/09/14 03:22:34;;;;;;;4.77;4.77;;;11.70;99.90;;;;;;5084756;28;20519;-67
2023/09/14 03:25:02;;;;;;;5.50;5.40;;;11.70;99.90;;;;;;5089733;28;20490;-68
2023/09/14 03:27:30;;;;;;;5.70;5.60;;;11.60;99.90;;;;;;5074833;28;21036;-67
2023/09/14 03:29:59;;;;;;;5.20;5.13;;;11.50;99.90;;;;;;5071854;28;20603;-68
2023/09/14 03:32:27;;;;;;;4.87;4.87;;;11.50;99.90;;;;;;5084171;28;20468;-68
2023/09/14 03:34:54;;;;;;;5.37;5.27;;;11.50;99.90;;;;;;5089491;28;20523;-67
2023/09/14 03:37:21;;;;;;;5.40;5.30;;;11.50;99.90;;;;;;5083749;28;20830;-68
2023/09/14 03:39:48;;;;;;;5.50;5.40;;;11.50;99.90;;;;;;5077712;28;20469;-67
2023/09/14 03:42:16;;;;;;;5.53;5.43;;;11.60;99.90;;;;;;5089835;28;20466;-67
2023/09/14 03:44:46;;;;;;;5.40;5.30;;;11.60;99.90;;;;;;5089454;28;20806;-66
2023/09/14 03:47:13;;;;;;;5.40;5.30;;;11.60;99.90;;;;;;5075798;28;20462;-68
2023/09/14 03:49:40;;;;;;;5.60;5.50;;;11.60;99.90;;;;;;5088693;28;20450;-68
2023/09/14 03:52:07;;;;;;;5.00;5.00;;;11.50;99.90;;;;;;5075238;28;20490;-67
2023/09/14 03:54:34;;;;;;;5.90;5.80;;;11.50;99.90;;;;;;5085957;28;20987;-67
2023/09/14 03:57:01;;;;;;;6.03;5.93;;;11.40;99.90;;;;;;5083558;28;20470;-68
2023/09/14 03:59:28;;;;;;;6.37;6.27;;;11.30;99.90;;;;;;5080348;28;20816;-68
2023/09/14 04:01:58;;;;;;;6.60;6.50;;;11.20;99.90;;;;;;5089003;28;20492;-68
2023/09/14 04:04:24;;;;;;;6.40;6.30;;;11.20;99.90;;;;;;5076288;28;20493;-67
2023/09/14 04:06:51;;;;;;;6.50;6.40;;;11.20;99.90;;;;;;5085196;28;20466;-68
2023/09/14 04:09:18;;;;;;;6.80;6.70;;;11.10;99.90;;;;;;5079914;28;20466;-68
2023/09/14 04:11:45;;;;;;;6.70;6.60;;;11.10;99.90;;;;;;5087632;28;20465;-68
2023/09/14 04:14:13;;;;;;;7.43;7.33;;;11.00;99.90;;;;;;5081114;28;21249;-66
2023/09/14 04:16:39;;;;;;;7.00;6.90;;;11.00;99.90;;;;;;5081300;28;20561;-67
2023/09/14 04:19:08;;;;;;;6.70;6.60;;;10.90;99.90;;;;;;5087048;28;21035;-67
2023/09/14 04:21:36;;;;;;;6.97;6.87;;;10.90;99.90;;;;;;5078254;28;20451;-67
2023/09/14 04:24:04;;;;;;;7.60;7.50;;;11.00;99.90;;;;;;5078490;28;20836;-67
2023/09/14 04:26:31;;;;;;;6.90;6.80;;;11.00;99.90;;;;;;5086931;28;20484;-68
2023/09/14 04:28:59;;;;;;;6.93;6.83;;;10.90;99.90;;;;;;5088285;28;20481;-67
2023/09/14 04:31:26;;;;;;;7.27;7.17;;;10.90;99.90;;;;;;5081867;28;20965;-67
2023/09/14 04:33:53;;;;;;;7.17;7.07;;;11.00;99.90;;;;;;5088674;28;20450;-68
2023/09/14 04:36:22;;;;;;;7.17;7.07;;;10.90;99.90;;;;;;5078943;28;20461;-67
2023/09/14 04:38:50;;;;;;;7.10;7.00;;;10.80;99.90;;;;;;5084392;28;20545;-67
2023/09/14 04:41:17;;;;;;;7.50;7.40;;;10.80;99.90;;;;;;5081656;28;20875;-67
2023/09/14 04:43:44;;;;;;;6.80;6.70;;;10.80;99.90;;;;;;5088702;28;20462;-68
2023/09/14 04:46:12;;;;;;;7.77;7.67;;;10.90;99.90;;;;;;5079266;28;20831;-67
2023/09/14 04:48:41;;;;;;;8.00;7.90;;;10.80;99.90;;;;;;5077653;28;20501;-67
2023/09/14 04:51:08;;;;;;;7.93;7.83;;;10.70;99.90;;;;;;5080691;28;20557;-67
2023/09/14 04:53:38;;;;;;;7.83;7.73;;;10.70;99.90;;;;;;5088792;28;20484;-66
2023/09/14 04:56:05;;;;;;;8.00;7.90;;;10.70;99.90;;;;;;5079534;28;20480;-68
2023/09/14 04:58:32;;;;;;;7.80;7.70;;;10.70;99.90;;;;;;5084699;28;20948;-68
2023/09/14 05:00:59;;;;;;;7.80;7.70;;;10.70;99.90;;;;;;5077738;28;20957;-68
2023/09/14 05:03:25;;;;;;;6.80;6.70;;;10.60;99.90;;;;;;5068428;28;20469;-67
2023/09/14 05:05:55;;;;;;;7.97;7.87;;;10.70;99.90;;;;;;5083134;28;21088;-68
2023/09/14 05:08:22;;;;;;;7.53;7.43;;;10.60;99.90;;;;;;5085630;28;20466;-67
2023/09/14 05:10:52;;;;;;;7.80;7.70;;;10.60;99.90;;;;;;5084234;28;20859;-67
2023/09/14 05:13:20;;;;;;;7.30;7.20;;;10.60;99.90;;;;;;5063627;28;20450;-67
2023/09/14 05:15:48;;;;;;;7.73;7.63;;;10.50;99.90;;;;;;5075205;28;20466;-68
2023/09/14 05:18:14;;;;;;;7.57;7.47;;;10.40;99.90;;;;;;5081078;28;20458;-68
2023/09/14 05:20:43;;;;;;;7.27;7.17;;;10.40;99.90;;;;;;5076340;28;20879;-67
2023/09/14 05:23:10;;;;;;;7.40;7.30;;;10.40;99.90;;;;;;5086623;28;20490;-68
2023/09/14 05:25:37;;;;;;;7.10;7.00;;;10.50;99.90;;;;;;5077736;28;20562;-68
2023/09/14 05:28:06;;;;;;;7.07;6.97;;;10.50;99.90;;;;;;5086174;28;20473;-67
2023/09/14 05:30:34;;;;;;;7.60;7.50;;;10.50;99.90;;;;;;5089200;28;20955;-67
2023/09/14 05:33:02;;;;;;;7.23;7.13;;;10.50;99.90;;;;;;5088236;28;21302;-67
2023/09/14 05:35:29;;;;;;;7.47;7.37;;;10.60;99.90;;;;;;5090048;28;20454;-67
2023/09/14 05:37:55;;;;;;;7.40;7.30;;;10.60;99.90;;;;;;5090504;28;20527;-67
2023/09/14 05:40:22;;;;;;;7.77;7.67;;;10.60;99.90;;;;;;5089910;28;20457;-67
2023/09/14 05:42:49;;;;;;;7.73;7.63;;;10.60;99.90;;;;;;5087675;28;20457;-66
2023/09/14 05:45:18;;;;;;;7.40;7.30;;;10.60;99.90;;;;;;5090769;28;20481;-67
2023/09/14 05:47:46;;;;;;;7.30;7.20;;;10.70;99.90;;;;;;5090216;28;20482;-66
2023/09/14 05:50:13;;;;;;;7.07;6.97;;;10.70;99.90;;;;;;5091689;28;20450;-68
2023/09/14 05:52:40;;;;;;;7.17;7.07;;;10.80;99.90;;;;;;5091557;28;20461;-68
2023/09/14 05:55:07;;;;;;;6.60;6.50;;;10.80;99.90;;;;;;5093242;28;20450;-68
2023/09/14 05:57:34;;;;;;;7.20;7.10;;;10.80;99.90;;;;;;5092801;28;20856;-67
2023/09/14 06:00:09;;;;;;;7.10;7.00;;;10.80;99.90;;;;;;5093301;28;20453;-68
2023/09/14 06:02:38;;;;;;;7.30;7.20;;;10.80;99.90;;;;;;5092290;28;20934;-67
2023/09/14 06:05:05;;;;;;;6.70;6.60;;;10.90;99.90;;;;;;5091968;28;20551;-68
2023/09/14 06:07:32;;;;;;;6.73;6.63;;;11.00;99.90;;;;;;5091833;28;20454;-67
2023/09/14 06:09:59;;;;;;;6.80;6.70;;;11.00;99.90;;;;;;5092553;28;20652;-67
2023/09/14 06:12:29;;;;;;;6.90;6.80;;;11.10;99.90;;;;;;5092687;28;20449;-67
2023/09/14 06:14:56;;;;;;;7.13;7.03;;;11.20;99.90;;;;;;5093976;28;20450;-68
2023/09/14 06:17:23;;;;;;;7.27;7.17;;;11.30;99.90;;;;;;5093743;28;20453;-67
2023/09/14 06:19:51;;;;;;;7.03;6.93;;;11.40;99.90;;;;;;5093217;28;20453;-67
2023/09/14 06:22:17;;;;;;;6.80;6.70;;;11.60;99.90;;;;;;5090881;28;20828;-67
2023/09/14 06:24:44;;;;;;;6.33;6.23;;;11.70;99.90;;;;;;5091954;28;20944;-68
2023/09/14 06:27:11;;;;;;;6.30;6.20;;;11.90;99.90;;;;;;5091145;28;20945;-67
2023/09/14 06:29:38;;;;;;;6.67;6.57;;;11.90;99.90;;;;;;5086817;28;20494;-68
2023/09/14 06:32:05;;;;;;;6.00;5.90;;;12.00;99.90;;;;;;5081759;28;20469;-67
2023/09/14 06:34:33;;;;;;;5.80;5.70;;;12.10;99.90;;;;;;5085454;28;20467;-67
2023/09/14 06:37:02;;;;;;;6.80;6.70;;;12.30;99.90;;;;;;5079016;28;20469;-68
2023/09/14 06:39:28;;;;;;;6.60;6.50;;;12.40;99.90;;;;;;5085828;28;20460;-67
2023/09/14 06:41:56;;;;;;;5.90;5.80;;;12.60;99.90;;;;;;5081648;28;20520;-68
2023/09/14 06:44:25;;;;;;;6.40;6.30;;;12.70;99.90;;;;;;5076302;28;20458;-68
2023/09/14 06:46:52;;;;;;;6.00;5.90;;;12.80;99.90;;;;;;5079143;28;20478;-67
2023/09/14 06:49:19;;;;;;;6.10;6.00;;;12.90;99.90;;;;;;5088882;28;20827;-68
2023/09/14 06:51:48;;;;;;;6.10;6.00;;;13.00;99.90;;;;;;5086687;28;20470;-68
2023/09/14 06:54:16;;;;;;;5.60;5.50;;;13.10;99.90;;;;;;5076115;28;20694;-67
2023/09/14 06:56:43;;;;;;;6.00;5.90;;;13.20;99.90;;;;;;5077812;28;20849;-67
2023/09/14 06:59:10;;;;;;;5.80;5.70;;;13.30;99.90;;;;;;5072837;28;20458;-67
2023/09/14 07:01:38;;;;;;;5.70;5.60;;;13.40;99.90;;;;;;5083629;28;20490;-68
2023/09/14 07:04:05;;;;;;;5.83;5.73;;;13.50;99.90;;;;;;5078314;28;20490;-68
2023/09/14 07:06:33;;;;;;;5.60;5.50;;;13.60;99.90;;;;;;5074938;28;20893;-67
2023/09/14 07:09:00;;;;;;;5.50;5.40;;;13.70;99.90;;;;;;5072452;28;20458;-68
2023/09/14 07:11:28;;;;;;;5.50;5.40;;;13.90;99.90;;;;;;5085708;28;20466;-67
2023/09/14 07:13:55;;;;;;;5.77;5.67;;;14.00;99.90;;;;;;5072802;28;20459;-68
2023/09/14 07:16:23;;;;;;;5.43;5.33;;;14.10;99.90;;;;;;5084738;28;20462;-67
2023/09/14 07:18:49;;;;;;;5.60;5.50;;;14.20;99.90;;;;;;5079454;28;20512;-68
2023/09/14 07:21:16;;;;;;;5.70;5.60;;;14.30;99.90;;;;;;5090041;28;20527;-68
2023/09/14 07:23:43;;;;;;;5.47;5.37;;;14.50;99.90;;;;;;5092188;28;20530;-67
2023/09/14 07:26:10;;;;;;;5.60;5.50;;;14.60;99.90;;;;;;5088422;28;20858;-66
2023/09/14 07:28:39;;;;;;;5.60;5.50;;;14.60;99.90;;;;;;5095929;28;21212;-68
2023/09/14 07:31:06;;;;;;;6.10;6.00;;;14.70;99.90;;;;;;5070192;28;20467;-68
2023/09/14 07:33:34;;;;;;;6.73;6.63;;;14.90;99.90;;;;;;5080215;28;20458;-66
2023/09/14 07:36:01;;;;;;;6.90;6.80;;;15.00;99.90;;;;;;5099500;28;20577;-68
2023/09/14 07:38:28;;;;;;;6.70;6.60;;;15.10;99.90;;;;;;5093578;28;20459;-66
2023/09/14 07:40:55;;;;;;;6.83;6.73;;;15.20;99.90;;;;;;5081403;28;20466;-66
2023/09/14 07:43:22;;;;;;;6.30;6.20;;;15.20;99.90;;;;;;5080836;28;20486;-67
2023/09/14 07:45:50;;;;;;;6.80;6.70;;;15.30;99.90;;;;;;5068817;28;20485;-66
2023/09/14 07:48:18;;;;;;;6.90;6.80;;;15.30;99.90;;;;;;5069589;28;20462;-67
2023/09/14 07:50:44;;;;;;;8.10;8.00;;;15.40;99.90;;;;;;5080601;28;20524;-67
2023/09/14 07:53:11;;;;;;;7.90;7.80;;;15.40;99.90;;;;;;5081467;28;20455;-68
2023/09/14 07:55:39;;;;;;;7.90;7.80;;;15.50;99.90;;;;;;5085835;28;20474;-68
2023/09/14 07:58:06;;;;;;;7.57;7.47;;;15.70;99.90;;;;;;5077159;28;20546;-68
2023/09/14 08:00:34;;;;;;;8.93;8.77;;;15.70;99.90;;;;;;5084665;28;20549;-68
2023/09/14 08:03:02;;;;;;;8.40;8.30;;;15.90;99.90;;;;;;5077257;28;20469;-67
2023/09/14 08:05:30;;;;;;;7.90;7.80;;;16.00;99.90;;;;;;5084659;28;20565;-66
2023/09/14 08:07:57;;;;;;;7.73;7.63;;;16.10;99.90;;;;;;5076713;28;20819;-68
2023/09/14 08:10:24;;;;;;;7.77;7.67;;;16.10;99.90;;;;;;5081564;28;20537;-68
2023/09/14 08:12:52;;;;;;;8.27;8.17;;;16.30;99.90;;;;;;5075427;28;20964;-68
2023/09/14 08:15:20;;;;;;;7.90;7.80;;;16.30;99.90;;;;;;5082400;28;20449;-68
2023/09/14 08:17:47;;;;;;;8.00;7.90;;;16.40;99.90;;;;;;5076109;28;20461;-67
2023/09/14 08:20:15;;;;;;;8.03;7.93;;;16.50;99.90;;;;;;5079086;28;20468;-67
2023/09/14 08:22:42;;;;;;;9.13;8.93;;;16.50;99.90;;;;;;5077605;28;20466;-68
2023/09/14 08:25:10;;;;;;;8.60;8.50;;;16.70;99.90;;;;;;5069190;28;20493;-68
2023/09/14 08:27:39;;;;;;;8.93;8.77;;;16.70;99.90;;;;;;5076350;28;20497;-66
2023/09/14 08:30:07;;;;;;;9.00;8.80;;;16.70;99.90;;;;;;5048008;28;20484;-67
2023/09/14 08:32:35;;;;;;;8.20;8.10;;;16.90;99.90;;;;;;5060879;28;20691;-67
2023/09/14 08:35:22;;;;;;;9.60;9.40;;;16.90;99.90;;;;;;5061929;28;20473;-68
2023/09/14 08:37:49;;;;;;;9.93;9.73;;;16.90;99.90;;;;;;5055603;28;21027;-68
2023/09/14 08:40:18;;;;;;;9.50;9.30;;;17.20;99.90;;;;;;5048307;28;20497;-68
2023/09/14 08:42:49;;;;;;;9.10;8.90;;;17.40;99.90;;;;;;5056703;28;20524;-68
2023/09/14 08:45:19;;;;;;;9.50;9.30;;;17.40;99.90;;;;;;5047983;28;20495;-67
2023/09/14 08:47:48;;;;;;;8.60;8.50;;;17.50;99.90;;;;;;5053694;28;20459;-68
2023/09/14 08:50:17;;;;;;;9.53;9.33;;;17.60;99.90;;;;;;5059707;28;20455;-67
2023/09/14 08:52:46;;;;;;;9.30;9.10;;;17.60;99.90;;;;;;5062390;28;20868;-69
2023/09/14 08:55:13;;;;;;;9.30;9.10;;;17.70;99.90;;;;;;5057252;28;20483;-68
2023/09/14 08:57:42;;;;;;;9.60;9.40;;;17.80;99.90;;;;;;5056631;28;20463;-69
2023/09/14 09:00:15;;;;;;;10.23;10.03;;;18.00;99.90;;;;;;5056695;28;20471;-68
2023/09/14 09:02:44;;;;;;;11.00;10.70;;;18.10;99.90;;;;;;5059254;28;20498;-68
2023/09/14 09:05:12;;;;;;;11.63;11.33;;;18.10;99.90;;;;;;5062290;28;20486;-68
2023/09/14 09:07:41;;;;;;;11.20;10.90;;;18.20;99.90;;;;;;5061086;28;20474;-68
2023/09/14 09:10:17;;;;;;;11.90;11.60;;;18.40;99.90;;;;;;5050786;28;20526;-68
2023/09/14 09:12:45;;;;;;;12.40;12.03;;;18.50;99.90;;;;;;5055908;28;20452;-68
2023/09/14 09:15:13;;;;;;;13.47;13.07;;;18.70;99.90;;;;;;5060013;28;20490;-68
2023/09/14 09:17:41;;;;;;;13.20;12.80;;;18.80;99.90;;;;;;5058265;28;20481;-68
2023/09/14 09:20:16;;;;;;;12.57;12.20;;;19.10;99.90;;;;;;5056111;28;20847;-68
2023/09/14 09:22:45;;;;;;;12.40;12.10;;;19.50;99.90;;;;;;5055500;28;20478;-68
2023/09/14 09:25:13;;;;;;;14.03;13.60;;;20.20;99.90;;;;;;5052951;28;20458;-69
2023/09/14 09:27:41;;;;;;;14.50;14.00;;;21.10;99.90;;;;;;5054904;28;20464;-69
2023/09/14 09:30:09;;;;;;;14.60;14.10;;;22.00;99.90;;;;;;5082302;28;20823;-68
2023/09/14 09:32:38;;;;;;;14.10;13.63;;;22.50;99.90;;;;;;5090019;28;20905;-69
2023/09/14 09:35:19;;;;;;;14.93;14.43;;;22.90;99.90;;;;;;5085365;28;21024;-69
2023/09/14 09:37:46;;;;;;;15.40;14.80;;;23.30;99.90;;;;;;5086837;28;21031;-67
2023/09/14 09:40:15;;;;;;;14.87;14.37;;;23.70;99.90;;;;;;5089288;28;20454;-68
2023/09/14 09:42:43;;;;;;;15.20;14.70;;;24.10;99.90;;;;;;5079748;28;20458;-69
2023/09/14 09:45:10;;;;;;;15.07;14.57;;;24.40;99.90;;;;;;5086529;28;20457;-68
2023/09/14 09:47:38;;;;;;;15.20;14.70;;;24.70;99.90;;;;;;5072275;28;20469;-69
2023/09/14 09:50:10;;;;;;;15.43;14.93;;;24.80;99.90;;;;;;5083413;28;20458;-70
2023/09/14 09:52:37;;;;;;;15.40;14.90;;;24.60;99.90;;;;;;5081487;28;21219;-68
2023/09/14 09:55:05;;;;;;;15.30;14.80;;;24.40;99.90;;;;;;5077860;28;20474;-69
2023/09/14 09:57:37;;;;;;;15.77;15.17;;;24.50;99.90;;;;;;5081313;28;20450;-69
2023/09/14 10:00:12;;;;;;;14.90;14.40;;;24.60;99.90;;;;;;5085191;28;20821;-69
2023/09/14 10:02:41;;;;;;;15.23;14.73;;;25.20;99.90;;;;;;5089956;28;20461;-67
2023/09/14 10:05:08;;;;;;;15.50;14.90;;;25.80;99.90;;;;;;5082352;28;20472;-70
2023/09/14 10:07:40;;;;;;;15.90;15.30;;;26.60;99.90;;;;;;5077407;28;20497;-70
2023/09/14 10:10:08;;;;;;;15.17;14.67;;;26.80;99.90;;;;;;5085710;28;20602;-69
2023/09/14 10:12:39;;;;;;;15.50;15.00;;;26.40;99.90;;;;;;5082704;28;20463;-69
2023/09/14 10:15:08;;;;;;;16.37;15.77;;;26.40;99.90;;;;;;5084645;28;20454;-70
2023/09/14 10:17:36;;;;;;;15.53;15.03;;;26.60;99.90;;;;;;5070663;28;20470;-69
2023/09/14 10:20:06;;;;;;;15.60;15.10;;;26.40;99.90;;;;;;5088569;28;20464;-69
2023/09/14 10:22:36;;;;;;;15.50;15.00;;;26.20;99.90;;;;;;5085375;28;20921;-69
2023/09/14 10:25:04;;;;;;;15.43;14.93;;;26.10;99.90;;;;;;5078170;28;20474;-68
2023/09/14 10:27:31;;;;;;;15.30;14.80;;;26.40;99.90;;;;;;5075878;28;20481;-70
2023/09/14 10:30:00;;;;;;;15.20;14.70;;;25.70;99.90;;;;;;5088394;28;20507;-69
2023/09/14 10:32:30;;;;;;;15.00;14.50;;;24.90;99.90;;;;;;5077570;28;20451;-70
2023/09/14 10:35:00;;;;;;;15.30;14.80;;;24.50;99.90;;;;;;5081203;28;20478;-70
2023/09/14 10:37:29;;;;;;;15.37;14.87;;;24.70;99.90;;;;;;5084780;28;20462;-69
2023/09/14 10:39:57;;;;;;;14.90;14.40;;;24.40;99.90;;;;;;5083492;28;20495;-69
2023/09/14 10:42:24;;;;;;;15.40;14.90;;;24.50;99.90;;;;;;5081287;28;20471;-69
2023/09/14 10:44:51;;;;;;;15.27;14.77;;;25.00;99.90;;;;;;5076929;28;20458;-70
2023/09/14 10:47:24;;;;;;;15.10;14.60;;;25.20;99.90;;;;;;5082285;28;20493;-68
2023/09/14 10:49:53;;;;;;;15.30;14.80;;;25.40;99.90;;;;;;5081175;28;20456;-69
2023/09/14 10:52:27;;;;;;;15.63;15.13;;;25.70;99.90;;;;;;5073044;28;20466;-69
2023/09/14 10:54:55;;;;;;;15.23;14.73;;;25.80;99.90;;;;;;5074828;28;20461;-68
2023/09/14 10:57:23;;;;;;;15.50;15.00;;;26.20;99.90;;;;;;5080785;28;20468;-69
2023/09/14 10:59:52;;;;;;;15.73;15.23;;;26.80;99.90;;;;;;5079716;28;20931;-70
2023/09/14 11:02:58;;;;;;;15.90;15.30;;;27.50;99.90;;;;;;5079824;28;20459;-69
2023/09/14 11:05:26;;;;;;;16.73;16.13;;;27.50;99.90;;;;;;5077009;28;20466;-68
2023/09/14 11:07:58;;;;;;;16.13;15.53;;;27.40;99.90;;;;;;5079520;28;20504;-69
2023/09/14 11:10:25;;;;;;;16.23;15.63;;;28.10;99.90;;;;;;5078914;28;20957;-68
2023/09/14 11:12:52;;;;;;;16.07;15.47;;;28.00;99.90;;;;;;5072955;28;20469;-69
2023/09/14 11:15:21;;;;;;;16.27;15.67;;;28.00;99.90;;;;;;5087213;28;20956;-69
2023/09/14 11:17:53;;;;;;;15.40;14.90;;;28.80;99.90;;;;;;5085546;28;20454;-69
2023/09/14 11:20:40;;;;;;;15.43;14.93;;;28.20;99.90;;;;;;5076789;28;20465;-68
2023/09/14 11:23:09;;;;;;;14.83;14.33;;;27.50;99.90;;;;;;5085184;28;20454;-69
2023/09/14 11:25:37;;;;;;;15.77;15.27;;;27.10;99.90;;;;;;5070985;28;20868;-69
2023/09/14 11:28:05;;;;;;;14.70;14.20;;;27.50;99.90;;;;;;5075987;28;20479;-70
2023/09/14 11:30:32;;;;;;;15.33;14.83;;;27.80;99.90;;;;;;5073345;28;20539;-69
2023/09/14 11:33:01;;;;;;;15.60;15.10;;;28.20;99.90;;;;;;5078542;28;20473;-69
2023/09/14 11:35:36;;;;;;;15.60;15.10;;;28.30;99.90;;;;;;5073286;28;20469;-70
2023/09/14 11:38:14;;;;;;;15.90;15.40;;;27.60;99.90;;;;;;5080397;28;20450;-70
2023/09/14 11:40:42;;;;;;;16.43;15.83;;;28.00;99.90;;;;;;5078511;28;20680;-70
2023/09/14 11:43:24;;;;;;;15.53;15.03;;;28.20;99.90;;;;;;5085075;28;20460;-71
2023/09/14 11:45:56;;;;;;;15.40;14.90;;;27.90;99.90;;;;;;5081777;28;20446;-69
2023/09/14 11:48:23;;;;;;;16.30;15.70;;;27.80;99.90;;;;;;5073761;28;20819;-71
2023/09/14 11:50:52;;;;;;;15.83;15.33;;;28.40;99.90;;;;;;5069535;28;20458;-71
2023/09/14 11:53:22;;;;;;;15.87;15.37;;;28.60;99.90;;;;;;5070944;28;20883;-69
2023/09/14 11:55:50;;;;;;;16.17;15.57;;;29.10;99.90;;;;;;5075690;28;20477;-71
2023/09/14 11:58:18;;;;;;;16.10;15.60;;;28.90;99.90;;;;;;5074623;28;20478;-69
2023/09/14 12:00:47;;;;;;;16.17;15.67;;;29.30;99.90;;;;;;5071373;28;20467;-69
2023/09/14 12:03:14;;;;;;;16.10;15.60;;;29.70;99.90;;;;;;5074828;28;21058;-69
2023/09/14 12:05:42;;;;;;;15.90;15.40;;;29.70;99.90;;;;;;5082821;28;20461;-69
2023/09/14 12:08:11;;;;;;;15.60;15.10;;;29.70;99.90;;;;;;5082452;28;20489;-69
2023/09/14 12:10:39;;;;;;;15.67;15.17;;;29.50;99.90;;;;;;5074546;28;20466;-69
2023/09/14 12:13:12;;;;;;;16.23;15.73;;;29.50;99.90;;;;;;5069417;28;20486;-68
2023/09/14 12:15:39;;;;;;;16.00;15.50;;;30.00;99.90;;;;;;5078004;28;20993;-68
2023/09/14 12:18:06;;;;;;;15.87;15.37;;;29.50;99.90;;;;;;5071236;28;20469;-69
2023/09/14 12:20:36;;;;;;;15.23;14.73;;;28.60;99.90;;;;;;5080156;28;20463;-67
2023/09/14 12:23:04;;;;;;;15.80;15.30;;;28.20;99.90;;;;;;5078602;28;21219;-67
2023/09/14 12:25:32;;;;;;;15.40;14.90;;;29.00;99.90;;;;;;5073707;28;20473;-70
2023/09/14 12:28:03;;;;;;;16.17;15.67;;;30.00;99.90;;;;;;5075681;28;22494;-68
2023/09/14 12:30:30;;;;;;;16.00;15.50;;;30.50;98.90;;;;;;5077087;28;20482;-67
2023/09/14 12:32:58;;;;;;;15.83;15.33;;;30.90;98.20;;;;;;5086969;28;20948;-67
2023/09/14 12:35:25;;;;;;;16.67;16.07;;;30.70;97.60;;;;;;5072065;28;20465;-69
2023/09/14 12:37:53;;;;;;;16.60;16.00;;;30.20;96.20;;;;;;5080621;28;20505;-69
2023/09/14 12:40:21;;;;;;;16.50;15.90;;;30.70;96.80;;;;;;5086947;28;20500;-68
2023/09/14 12:42:48;;;;;;;16.17;15.67;;;30.70;97.20;;;;;;5085924;28;20489;-67
2023/09/14 12:45:17;;;;;;;16.33;15.83;;;30.40;96.70;;;;;;5079104;28;20462;-67
2023/09/14 12:47:46;;;;;;;16.90;16.30;;;30.10;98.50;;;;;;5069835;28;20543;-67